createdAt,value
2022-12-22T00:03:41.739Z,95003.44
2022-12-22T00:07:41.903Z,95003.44
2022-12-22T00:11:42.359Z,95001.81
2022-12-22T00:15:45.687Z,94989.31
2022-12-22T00:19:47.979Z,94992.13
2022-12-22T00:23:48.309Z,94994.09
2022-12-22T00:27:50.227Z,94991.31
2022-12-22T00:31:50.572Z,95006.81
2022-12-22T00:35:52.025Z,94984.78
2022-12-22T00:39:52.417Z,94978.78
2022-12-22T00:43:52.649Z,94967.31
2022-12-22T00:47:53.036Z,94972.53
2022-12-22T00:51:54.598Z,94971.47
2022-12-22T00:55:55.105Z,94967.03
2022-12-22T00:59:55.248Z,94966.47
2022-12-22T01:03:56.946Z,94957.34
2022-12-22T01:07:58.608Z,94955.19
2022-12-22T01:11:58.835Z,94962.16
2022-12-22T01:15:59.201Z,94956.69
2022-12-22T01:19:59.589Z,94949.66
2022-12-22T01:24:01.728Z,94960.28
2022-12-22T01:28:02.120Z,94961.09
2022-12-22T01:32:02.370Z,94961.97
2022-12-22T01:36:02.801Z,94958.78
2022-12-22T01:40:04.339Z,94965.63
2022-12-22T01:44:04.647Z,94952.81
2022-12-22T01:48:04.988Z,94950.59
2022-12-22T01:52:05.292Z,94950.16
2022-12-22T01:56:06.813Z,94955.56
2022-12-22T02:00:07.008Z,94946.03
2022-12-22T02:04:07.539Z,94943.38
2022-12-22T02:08:15.083Z,94932.56
2022-12-22T02:12:21.183Z,94939.41
2022-12-22T02:16:28.290Z,94935.41
2022-12-22T02:20:50.494Z,94920.63
2022-12-22T02:24:56.156Z,94927.09
2022-12-22T02:28:58.042Z,94922.88
2022-12-22T02:33:07.244Z,94930.31
2022-12-22T02:37:14.635Z,94924.00
2022-12-22T02:41:23.139Z,94925.72
2022-12-22T02:45:30.093Z,94928.34
2022-12-22T02:49:34.944Z,94914.53
2022-12-22T02:53:36.718Z,94922.78
2022-12-22T02:57:36.960Z,94921.00
2022-12-22T03:01:38.742Z,94917.84
2022-12-22T03:05:38.983Z,94925.66
2022-12-22T03:09:39.353Z,94918.72
2022-12-22T03:13:39.665Z,94918.38
2022-12-22T03:17:41.452Z,94920.59
2022-12-22T03:21:41.852Z,94922.63
2022-12-22T03:25:42.205Z,94926.41
2022-12-22T03:29:25.008Z,94911.50
2022-12-22T03:33:09.075Z,94910.38
2022-12-22T03:36:54.359Z,94903.53
2022-12-22T03:40:37.059Z,94905.56
2022-12-22T03:44:37.317Z,94904.38
2022-12-22T03:48:21.283Z,94893.91
2022-12-22T03:52:04.215Z,94891.09
2022-12-22T03:55:46.875Z,94890.66
2022-12-22T03:59:29.627Z,94888.25
2022-12-22T04:03:13.024Z,94893.06
2022-12-22T04:06:57.439Z,94892.25
2022-12-22T04:10:57.817Z,94884.59
2022-12-22T04:14:40.469Z,94882.16
2022-12-22T04:18:23.113Z,94874.50
2022-12-22T04:22:07.324Z,94879.34
2022-12-22T04:25:50.094Z,94869.47
2022-12-22T04:29:32.794Z,94862.03
2022-12-22T04:33:15.576Z,94871.25
2022-12-22T04:37:07.092Z,94871.25
2022-12-22T04:40:56.948Z,94870.09
2022-12-22T04:44:39.618Z,94879.56
2022-12-22T04:48:22.787Z,94871.91
2022-12-22T04:52:05.841Z,94868.69
2022-12-22T04:55:48.805Z,94856.84
2022-12-22T04:59:32.933Z,94865.28
2022-12-22T05:03:15.702Z,94845.97
2022-12-22T05:06:58.444Z,94861.66
2022-12-22T05:10:41.133Z,94865.28
2022-12-22T05:14:23.780Z,94847.19
2022-12-22T05:18:09.584Z,94849.00
2022-12-22T05:21:52.270Z,94835.50
2022-12-22T05:25:35.704Z,94837.50
2022-12-22T05:29:20.711Z,94817.75
2022-12-22T05:33:03.427Z,94820.19
2022-12-22T05:36:47.431Z,94832.44
2022-12-22T05:40:32.918Z,94832.44
2022-12-22T05:44:15.913Z,94828.06
2022-12-22T05:47:58.669Z,94807.72
2022-12-22T05:51:41.341Z,94806.72
2022-12-22T05:55:25.496Z,94808.94
2022-12-22T05:59:08.203Z,94818.19
2022-12-22T06:02:51.266Z,94810.53
2022-12-22T06:06:33.995Z,94827.44
2022-12-22T06:10:17.361Z,94823.84
2022-12-22T06:14:03.512Z,94814.56
2022-12-22T06:17:46.175Z,94822.66
2022-12-22T06:21:28.833Z,94818.66
2022-12-22T06:25:17.823Z,94827.09
2022-12-22T06:29:02.623Z,94813.00
2022-12-22T06:32:45.394Z,94812.81
2022-12-22T06:36:28.135Z,94812.19
2022-12-22T06:40:11.746Z,94829.53
2022-12-22T06:43:54.506Z,94832.16
2022-12-22T06:47:38.559Z,94847.66
2022-12-22T06:51:21.269Z,94853.72
2022-12-22T06:55:06.827Z,94846.44
2022-12-22T06:58:49.588Z,94849.06
2022-12-22T07:02:32.555Z,94846.06
2022-12-22T07:06:18.353Z,94838.41
2022-12-22T07:10:01.066Z,94832.78
2022-12-22T07:13:44.996Z,94829.34
2022-12-22T07:17:27.703Z,94838.84
2022-12-22T07:21:12.211Z,94836.59
2022-12-22T07:24:56.351Z,94830.31
2022-12-22T07:28:40.383Z,94829.53
2022-12-22T07:32:23.027Z,94834.75
2022-12-22T07:36:08.375Z,94832.94
2022-12-22T07:39:51.032Z,94821.03
2022-12-22T07:43:35.083Z,94820.22
2022-12-22T07:47:17.737Z,94821.84
2022-12-22T07:51:06.617Z,94827.50
2022-12-22T07:54:49.300Z,94831.16
2022-12-22T07:58:34.407Z,94829.94
2022-12-22T08:02:18.576Z,94845.66
2022-12-22T08:06:05.099Z,94837.56
2022-12-22T08:09:47.740Z,94837.97
2022-12-22T08:13:30.424Z,94852.84
2022-12-22T08:17:13.013Z,94856.66
2022-12-22T08:20:57.045Z,94844.78
2022-12-22T08:24:39.754Z,94838.69
2022-12-22T08:28:22.633Z,94843.94
2022-12-22T08:32:05.747Z,94845.53
2022-12-22T08:35:48.403Z,94857.59
2022-12-22T08:39:34.235Z,94856.34
2022-12-22T08:43:17.994Z,94857.13
2022-12-22T08:47:01.233Z,94852.00
2022-12-22T08:50:44.006Z,94851.78
2022-12-22T08:54:26.679Z,94837.59
2022-12-22T08:58:10.781Z,94842.22
2022-12-22T09:01:53.541Z,94848.88
2022-12-22T09:05:38.523Z,94826.84
2022-12-22T09:09:22.204Z,94828.44
2022-12-22T09:13:04.842Z,94838.75
2022-12-22T09:16:50.339Z,94841.38
2022-12-22T09:20:33.110Z,94831.41
2022-12-22T09:24:15.874Z,94826.53
2022-12-22T09:27:58.637Z,94830.16
2022-12-22T09:31:41.676Z,94824.94
2022-12-22T09:35:25.821Z,94839.00
2022-12-22T09:39:10.843Z,94838.22
2022-12-22T09:42:53.572Z,94847.88
2022-12-22T09:46:37.355Z,94848.63
2022-12-22T09:50:23.301Z,94838.09
2022-12-22T09:54:07.500Z,94829.22
2022-12-22T09:57:50.246Z,94827.13
2022-12-22T10:01:43.605Z,94801.09
2022-12-22T10:05:38.477Z,94784.16
2022-12-22T10:13:27.024Z,94792.50
2022-12-22T10:17:20.360Z,94811.63
2022-12-22T10:21:11.579Z,94800.69
2022-12-22T10:24:56.156Z,94801.34
2022-12-22T10:28:44.715Z,94793.22
2022-12-22T10:32:27.442Z,94772.91
2022-12-22T10:36:10.608Z,94778.16
2022-12-22T10:39:53.238Z,94812.81
2022-12-22T10:43:39.102Z,94766.84
2022-12-22T10:47:23.933Z,94815.78
2022-12-22T10:51:07.811Z,94774.84
2022-12-22T10:54:50.626Z,94784.13
2022-12-22T10:58:33.646Z,94800.41
2022-12-22T11:02:27.851Z,94826.16
2022-12-22T11:06:13.346Z,94788.88
2022-12-22T11:09:55.946Z,94819.44
2022-12-22T11:13:48.772Z,94798.53
2022-12-22T11:17:43.562Z,94764.44
2022-12-22T11:21:31.435Z,94793.34
2022-12-22T11:25:25.464Z,94808.63
2022-12-22T11:29:25.190Z,94799.25
2022-12-22T11:33:25.948Z,94800.56
2022-12-22T11:37:27.707Z,94789.72
2022-12-22T11:41:22.778Z,94767.22
2022-12-22T11:45:15.865Z,94781.81
2022-12-22T11:49:11.875Z,94779.44
2022-12-22T11:53:05.595Z,94769.16
2022-12-22T11:56:52.071Z,94749.16
2022-12-22T12:01:12.254Z,94729.75
2022-12-22T12:05:02.304Z,94740.25
2022-12-22T12:08:57.467Z,94736.16
2022-12-22T12:12:49.012Z,94731.53
2022-12-22T12:16:38.906Z,94756.09
2022-12-22T12:20:39.052Z,94737.09
2022-12-22T12:24:41.879Z,94721.72
2022-12-22T12:28:30.629Z,94782.16
2022-12-22T12:32:17.475Z,94737.22
2022-12-22T12:36:04.344Z,94730.22
2022-12-22T12:39:56.213Z,94807.66
2022-12-22T12:43:41.004Z,94718.75
2022-12-22T12:47:26.427Z,94753.59
2022-12-22T12:51:48.331Z,94759.25
2022-12-22T12:55:33.745Z,94732.94
2022-12-22T12:59:47.136Z,94768.22
2022-12-22T13:08:26.858Z,94759.59
2022-12-22T13:12:39.265Z,94758.22
2022-12-22T13:16:32.415Z,94763.09
2022-12-22T13:20:16.765Z,94740.47
2022-12-22T13:24:23.939Z,94756.25
2022-12-22T13:28:06.691Z,94764.72
2022-12-22T13:31:55.049Z,94763.03
2022-12-22T13:35:46.697Z,94772.31
2022-12-22T13:39:31.045Z,94790.56
2022-12-22T13:43:15.092Z,94761.06
2022-12-22T13:47:03.594Z,94783.28
2022-12-22T13:50:49.479Z,94746.47
2022-12-22T13:54:34.569Z,94778.81
2022-12-22T13:58:27.551Z,94683.69
2022-12-22T14:02:18.437Z,94743.97
2022-12-22T14:06:01.204Z,94793.50
2022-12-22T14:09:45.530Z,94769.84
2022-12-22T14:13:31.492Z,94746.38
2022-12-22T14:17:23.288Z,94781.53
2022-12-22T14:21:06.475Z,94790.44
2022-12-22T14:24:54.392Z,94778.91
2022-12-22T14:28:42.738Z,94777.72
2022-12-22T14:32:41.672Z,94789.13
2022-12-22T14:36:25.391Z,94804.31
2022-12-22T14:40:15.719Z,94814.03
2022-12-22T14:43:59.821Z,94800.50
2022-12-22T14:47:47.198Z,94805.78
2022-12-22T14:51:29.947Z,94803.56
2022-12-22T14:55:24.410Z,94816.72
2022-12-22T14:59:12.043Z,94814.47
2022-12-22T15:02:58.269Z,94839.38
2022-12-22T15:06:43.708Z,94829.88
2022-12-22T15:10:27.941Z,94849.72
2022-12-22T15:14:13.021Z,94840.81
2022-12-22T15:17:57.024Z,94834.97
2022-12-22T15:21:40.120Z,94848.53
2022-12-22T15:25:25.147Z,94834.81
2022-12-22T15:29:07.836Z,94825.91
2022-12-22T15:32:50.456Z,94825.91
2022-12-22T15:36:34.474Z,94857.50
2022-12-22T15:40:19.019Z,94849.84
2022-12-22T15:44:01.749Z,94862.38
2022-12-22T15:47:45.833Z,94828.81
2022-12-22T15:51:30.449Z,94861.59
2022-12-22T15:55:16.374Z,94864.41
2022-12-22T15:58:59.199Z,94852.69
2022-12-22T16:02:42.093Z,94830.50
2022-12-22T16:06:25.207Z,94849.09
2022-12-22T16:10:10.122Z,94910.34
2022-12-22T16:13:54.204Z,94858.66
2022-12-22T16:17:36.848Z,94934.66
2022-12-22T16:21:22.244Z,94874.41
2022-12-22T16:25:07.129Z,94888.38
2022-12-22T16:28:49.895Z,94887.19
2022-12-22T16:32:34.021Z,94892.28
2022-12-22T16:36:16.831Z,94885.66
2022-12-22T16:39:59.458Z,94893.31
2022-12-22T16:47:43.886Z,94887.59
2022-12-22T16:51:28.267Z,94875.09
2022-12-22T16:55:15.663Z,94922.00
2022-12-22T16:58:58.840Z,94882.59
2022-12-22T17:02:43.219Z,94882.44
2022-12-22T17:06:26.284Z,94929.72
2022-12-22T17:10:19.317Z,94899.22
2022-12-22T17:14:06.432Z,94901.84
2022-12-22T17:17:50.555Z,94906.06
2022-12-22T17:21:34.265Z,94903.63
2022-12-22T17:25:19.236Z,94918.38
2022-12-22T17:29:01.965Z,94900.19
2022-12-22T17:32:44.675Z,94906.66
2022-12-22T17:36:33.311Z,94896.53
2022-12-22T17:40:21.604Z,94904.63
2022-12-22T17:44:04.357Z,94902.84
2022-12-22T17:47:48.108Z,94901.41
2022-12-22T17:51:32.204Z,94903.03
2022-12-22T17:55:49.775Z,94912.34
2022-12-22T17:59:23.124Z,94905.88
2022-12-22T18:03:06.029Z,94893.34
2022-12-22T18:06:50.211Z,94882.44
2022-12-22T18:10:35.049Z,94910.56
2022-12-22T18:14:18.346Z,94881.25
2022-12-22T18:18:01.256Z,94884.88
2022-12-22T18:21:44.630Z,94869.94
2022-12-22T18:25:31.367Z,94895.44
2022-12-22T18:29:15.485Z,94867.13
2022-12-22T18:32:58.304Z,94864.94
2022-12-22T18:36:42.803Z,94879.88
2022-12-22T18:40:28.803Z,94861.53
2022-12-22T18:44:16.505Z,94855.09
2022-12-22T18:47:59.178Z,94853.34
2022-12-22T18:51:43.409Z,94852.09
2022-12-22T18:55:32.124Z,94859.63
2022-12-22T18:59:23.562Z,94864.84
2022-12-22T19:03:15.834Z,94857.22
2022-12-22T19:06:58.801Z,94851.56
2022-12-22T19:10:45.744Z,94833.59
2022-12-22T19:14:28.416Z,94828.19
2022-12-22T19:18:19.906Z,94830.81
2022-12-22T19:22:07.174Z,94844.91
2022-12-22T19:25:52.863Z,94838.09
2022-12-22T19:29:35.742Z,94835.25
2022-12-22T19:33:22.197Z,94828.13
2022-12-22T19:37:04.890Z,94824.53
2022-12-22T19:40:48.019Z,94822.69
2022-12-22T19:44:32.157Z,94814.63
2022-12-22T19:48:18.401Z,94815.19
2022-12-22T19:52:01.197Z,94817.63
2022-12-22T19:55:48.376Z,94810.81
2022-12-22T19:59:38.544Z,94811.97
2022-12-22T20:03:24.314Z,94811.97
2022-12-22T20:07:09.560Z,94786.56
2022-12-22T20:10:58.381Z,94810.53
2022-12-22T20:14:43.130Z,94803.84
2022-12-22T20:18:29.170Z,94801.22
2022-12-22T20:22:15.308Z,94793.69
2022-12-22T20:26:01.477Z,94789.66
2022-12-22T20:29:45.560Z,94791.31
2022-12-22T20:33:28.356Z,94787.38
2022-12-22T20:37:14.585Z,94782.34
2022-12-22T20:40:57.361Z,94776.66
2022-12-22T20:44:40.051Z,94777.84
2022-12-22T20:48:45.584Z,94753.22
2022-12-22T20:52:30.505Z,94752.00
2022-12-22T20:56:23.943Z,94759.72
2022-12-22T21:00:08.308Z,94745.94
2022-12-22T21:03:52.516Z,94741.94
2022-12-22T21:07:35.230Z,94731.41
2022-12-22T21:11:17.998Z,94728.59
2022-12-22T21:15:01.008Z,94739.47
2022-12-22T21:18:43.723Z,94738.84
2022-12-22T21:22:27.798Z,94745.94
2022-12-22T21:26:20.058Z,94738.66
2022-12-22T21:30:02.771Z,94743.91
2022-12-22T21:33:45.511Z,94743.91
2022-12-22T21:37:32.612Z,94736.63
2022-12-22T21:41:15.409Z,94737.47
2022-12-22T21:44:58.229Z,94735.81
2022-12-22T21:48:40.932Z,94735.81
2022-12-22T21:52:23.554Z,94737.47
2022-12-22T21:56:17.313Z,94731.34
2022-12-22T22:00:00.004Z,94726.97
2022-12-22T22:03:42.955Z,94709.38
2022-12-22T22:07:25.716Z,94701.09
2022-12-22T22:11:17.473Z,94707.78
2022-12-22T22:15:01.919Z,94693.91
2022-12-22T22:18:45.940Z,94686.28
2022-12-22T22:22:30.733Z,94677.81
2022-12-22T22:26:15.223Z,94655.16
2022-12-22T22:29:57.827Z,94652.75
2022-12-22T22:33:40.464Z,94645.47
2022-12-22T22:37:23.136Z,94639.03
2022-12-22T22:41:06.069Z,94643.28
2022-12-22T22:44:50.095Z,94629.19
2022-12-22T22:48:32.768Z,94634.59
2022-12-22T22:52:15.602Z,94620.22
2022-12-22T22:56:02.437Z,94614.41
2022-12-22T22:59:45.151Z,94621.69
2022-12-22T23:03:31.464Z,94602.88
2022-12-22T23:07:14.338Z,94590.56
2022-12-22T23:10:57.149Z,94583.00
2022-12-22T23:14:41.827Z,94576.75
2022-12-22T23:18:24.923Z,94587.09
2022-12-22T23:22:09.027Z,94571.38
2022-12-22T23:25:52.161Z,94563.34
2022-12-22T23:29:34.880Z,94579.47
2022-12-22T23:33:17.927Z,94586.75
2022-12-22T23:37:00.840Z,94586.41
2022-12-22T23:40:53.887Z,94578.81
2022-12-22T23:44:36.940Z,94565.31
2022-12-22T23:48:22.650Z,94558.34
2022-12-22T23:52:05.637Z,94565.69
2022-12-22T23:55:50.355Z,94572.59
2022-12-22T23:59:33.099Z,94564.72
